createdAt,value
2023-04-29T00:04:50.042Z,38.08
2023-04-29T00:07:19.396Z,35.97
2023-04-29T00:09:48.658Z,36.10
2023-04-29T00:12:19.195Z,35.30
2023-04-29T00:17:17.408Z,34.50
2023-04-29T00:19:45.498Z,34.08
2023-04-29T00:22:13.324Z,34.20
2023-04-29T00:24:40.781Z,32.65
2023-04-29T00:27:08.616Z,32.75
2023-04-29T00:29:36.581Z,32.03
2023-04-29T00:32:05.226Z,33.00
2023-04-29T00:34:32.977Z,32.05
2023-04-29T00:37:00.802Z,31.20
2023-04-29T00:39:28.388Z,29.27
2023-04-29T00:41:56.450Z,31.88
2023-04-29T00:44:24.157Z,31.85
2023-04-29T00:46:51.985Z,29.42
2023-04-29T00:49:19.884Z,29.08
2023-04-29T00:51:49.078Z,30.48
2023-04-29T00:54:18.581Z,28.70
2023-04-29T00:56:49.490Z,30.33
2023-04-29T00:59:18.793Z,30.38
2023-04-29T01:01:48.905Z,29.02
2023-04-29T01:04:17.987Z,28.67
2023-04-29T01:06:51.767Z,29.48
2023-04-29T01:09:23.140Z,28.98
2023-04-29T01:11:54.548Z,29.42
2023-04-29T01:14:23.076Z,31.17
2023-04-29T01:16:57.237Z,29.23
2023-04-29T01:19:34.183Z,29.65
2023-04-29T01:22:02.506Z,30.90
2023-04-29T01:24:31.036Z,29.58
2023-04-29T01:27:04.522Z,30.20
2023-04-29T01:30:32.202Z,30.27
2023-04-29T01:33:19.267Z,28.50
2023-04-29T01:36:07.722Z,29.05
2023-04-29T01:38:50.553Z,28.60
2023-04-29T01:41:32.275Z,28.85
2023-04-29T01:44:13.353Z,28.10
2023-04-29T01:46:50.099Z,28.40
2023-04-29T01:49:51.041Z,27.88
2023-04-29T01:52:19.511Z,26.98
2023-04-29T01:54:56.648Z,26.85
2023-04-29T01:57:25.909Z,28.35
2023-04-29T02:00:02.323Z,27.70
2023-04-29T02:02:45.732Z,27.58
2023-04-29T02:05:34.395Z,27.05
2023-04-29T02:08:02.836Z,27.13
2023-04-29T02:10:32.404Z,28.27
2023-04-29T02:13:20.324Z,27.13
2023-04-29T02:15:49.585Z,27.15
2023-04-29T02:18:19.151Z,29.13
2023-04-29T02:20:52.457Z,26.73
2023-04-29T02:23:20.132Z,27.48
2023-04-29T02:25:49.411Z,26.95
2023-04-29T02:28:18.741Z,26.05
2023-04-29T02:30:48.776Z,26.07
2023-04-29T02:33:17.440Z,28.53
2023-04-29T02:35:45.963Z,25.80
2023-04-29T02:38:14.514Z,27.33
2023-04-29T02:40:47.410Z,28.05
2023-04-29T02:43:17.285Z,26.92
2023-04-29T02:45:48.943Z,26.63
2023-04-29T02:48:18.557Z,26.70
2023-04-29T02:50:49.117Z,27.52
2023-04-29T02:53:19.359Z,26.17
2023-04-29T02:55:48.582Z,28.63
2023-04-29T02:58:16.128Z,26.83
2023-04-29T03:00:45.919Z,26.20
2023-04-29T03:03:17.672Z,25.52
2023-04-29T03:05:51.588Z,26.90
2023-04-29T03:08:20.058Z,26.92
2023-04-29T03:10:49.342Z,25.65
2023-04-29T03:13:19.652Z,25.92
2023-04-29T03:15:49.383Z,26.45
2023-04-29T03:18:19.147Z,25.90
2023-04-29T03:20:49.766Z,27.15
2023-04-29T03:23:20.268Z,26.98
2023-04-29T03:25:50.201Z,25.35
2023-04-29T03:28:21.748Z,26.77
2023-04-29T03:30:49.782Z,26.33
2023-04-29T03:33:19.969Z,25.88
2023-04-29T03:35:50.040Z,25.13
2023-04-29T03:38:39.916Z,26.73
2023-04-29T03:41:10.667Z,25.45
2023-04-29T03:43:39.717Z,26.40
2023-04-29T03:46:07.679Z,25.42
2023-04-29T03:48:35.407Z,27.77
2023-04-29T03:51:03.037Z,26.48
2023-04-29T03:53:30.936Z,26.15
2023-04-29T03:55:58.641Z,26.27
2023-04-29T03:58:26.482Z,25.67
2023-04-29T04:00:57.760Z,26.20
2023-04-29T04:03:33.226Z,26.48
2023-04-29T04:06:01.067Z,27.05
2023-04-29T04:08:29.230Z,26.08
2023-04-29T04:11:04.753Z,26.25
2023-04-29T04:13:44.768Z,28.23
2023-04-29T04:16:13.005Z,25.20
2023-04-29T04:18:40.932Z,26.08
2023-04-29T04:21:09.008Z,26.75
2023-04-29T04:23:40.776Z,26.73
2023-04-29T04:26:10.762Z,26.30
2023-04-29T04:29:05.194Z,26.08
2023-04-29T04:31:49.626Z,25.83
2023-04-29T04:34:24.598Z,24.65
2023-04-29T04:36:53.320Z,26.65
2023-04-29T04:39:23.301Z,26.30
2023-04-29T04:41:51.835Z,25.23
2023-04-29T04:44:21.011Z,27.55
2023-04-29T04:47:08.980Z,25.33
2023-04-29T04:49:56.947Z,25.10
2023-04-29T04:52:24.773Z,26.48
2023-04-29T04:55:18.524Z,24.38
2023-04-29T04:57:50.918Z,24.45
2023-04-29T05:00:21.923Z,24.00
2023-04-29T05:02:51.763Z,23.55
2023-04-29T05:05:22.590Z,23.20
2023-04-29T05:07:50.424Z,23.45
2023-04-29T05:10:21.216Z,22.88
2023-04-29T05:12:53.769Z,21.85
2023-04-29T05:15:26.633Z,21.42
2023-04-29T05:17:56.992Z,23.40
2023-04-29T05:20:26.257Z,21.90
2023-04-29T05:22:55.587Z,22.27
2023-04-29T05:25:24.446Z,21.58
2023-04-29T05:27:53.560Z,21.90
2023-04-29T05:30:25.682Z,20.40
2023-04-29T05:32:53.626Z,21.00
2023-04-29T05:35:22.621Z,20.95
2023-04-29T05:37:51.498Z,20.50
2023-04-29T05:40:35.440Z,21.20
2023-04-29T05:43:22.079Z,20.90
2023-04-29T05:45:53.486Z,21.00
2023-04-29T05:48:21.617Z,19.75
2023-04-29T05:50:52.186Z,20.58
2023-04-29T05:53:20.042Z,20.02
2023-04-29T05:55:51.506Z,20.40
2023-04-29T05:58:21.656Z,19.27
2023-04-29T06:00:50.681Z,21.08
2023-04-29T06:03:22.969Z,21.10
2023-04-29T06:06:14.187Z,20.10
2023-04-29T06:08:58.663Z,21.42
2023-04-29T06:11:29.439Z,20.20
2023-04-29T06:13:57.560Z,19.70
2023-04-29T06:16:27.724Z,19.75
2023-04-29T06:18:56.112Z,19.60
2023-04-29T06:21:23.861Z,20.50
2023-04-29T06:23:53.249Z,19.48
2023-04-29T06:28:49.962Z,20.88
2023-04-29T06:31:23.052Z,19.83
2023-04-29T06:33:53.717Z,20.60
2023-04-29T06:36:21.695Z,20.27
2023-04-29T06:39:08.015Z,19.90
2023-04-29T06:41:56.793Z,19.70
2023-04-29T06:44:42.955Z,20.38
2023-04-29T06:47:39.781Z,20.45
2023-04-29T06:50:14.681Z,20.05
2023-04-29T06:56:01.823Z,19.95
2023-04-29T06:58:29.958Z,19.42
2023-04-29T07:01:00.620Z,19.67
2023-04-29T07:03:28.232Z,19.27
2023-04-29T07:06:01.270Z,19.50
2023-04-29T07:08:28.974Z,19.42
2023-04-29T07:10:57.566Z,19.63
2023-04-29T07:13:25.885Z,19.02
2023-04-29T07:15:57.845Z,18.85
2023-04-29T07:18:25.781Z,19.25
2023-04-29T07:20:53.524Z,19.20
2023-04-29T07:23:21.301Z,19.25
2023-04-29T07:25:50.385Z,19.58
2023-04-29T07:28:18.742Z,20.15
2023-04-29T07:30:50.037Z,19.08
2023-04-29T07:33:20.218Z,18.27
2023-04-29T07:35:50.588Z,17.98
2023-04-29T07:40:47.377Z,19.38
2023-04-29T07:43:15.755Z,18.38
2023-04-29T07:45:43.380Z,18.40
2023-04-29T07:48:11.299Z,18.15
2023-04-29T07:50:39.072Z,18.02
2023-04-29T07:53:06.875Z,17.67
2023-04-29T07:55:34.607Z,17.50
2023-04-29T07:58:02.297Z,16.85
2023-04-29T08:00:30.218Z,18.35
2023-04-29T08:02:58.412Z,16.63
2023-04-29T08:05:27.178Z,17.40
2023-04-29T08:07:55.057Z,16.67
2023-04-29T08:10:23.470Z,16.35
2023-04-29T08:12:51.071Z,16.95
2023-04-29T08:15:21.802Z,17.85
2023-04-29T08:17:53.025Z,16.25
2023-04-29T08:20:21.128Z,15.95
2023-04-29T08:22:49.940Z,16.27
2023-04-29T08:25:19.029Z,17.02
2023-04-29T08:27:48.482Z,16.35
2023-04-29T08:30:18.209Z,16.13
2023-04-29T08:32:46.057Z,17.55
2023-04-29T08:35:15.557Z,14.73
2023-04-29T08:37:43.465Z,15.60
2023-04-29T08:40:11.291Z,15.77
2023-04-29T08:42:38.899Z,14.98
2023-04-29T08:45:07.572Z,15.43
2023-04-29T08:47:35.585Z,14.68
2023-04-29T08:50:06.177Z,13.52
2023-04-29T08:52:34.173Z,14.75
2023-04-29T08:55:06.062Z,12.70
2023-04-29T08:57:40.123Z,12.30
2023-04-29T09:00:10.568Z,12.32
2023-04-29T09:02:50.946Z,12.38
2023-04-29T09:07:51.275Z,10.75
2023-04-29T09:10:22.320Z,10.98
2023-04-29T09:12:50.287Z,11.25
2023-04-29T09:15:20.991Z,11.00
2023-04-29T09:17:49.842Z,10.93
2023-04-29T09:20:23.333Z,11.40
2023-04-29T09:23:07.198Z,10.95
2023-04-29T09:25:36.555Z,10.73
2023-04-29T09:28:19.039Z,11.18
2023-04-29T09:30:50.813Z,10.65
2023-04-29T09:33:22.353Z,10.45
2023-04-29T09:35:50.035Z,9.57
2023-04-29T09:38:21.101Z,9.80
2023-04-29T09:40:59.678Z,9.25
2023-04-29T09:43:32.095Z,8.95
2023-04-29T09:46:00.437Z,9.10
2023-04-29T09:48:45.010Z,9.48
2023-04-29T09:51:14.982Z,9.57
2023-04-29T09:53:48.532Z,9.20
2023-04-29T09:56:18.866Z,8.98
2023-04-29T09:58:47.372Z,8.85
2023-04-29T10:01:19.442Z,8.90
2023-04-29T10:03:50.499Z,7.47
2023-04-29T10:06:19.411Z,8.23
2023-04-29T10:08:52.038Z,8.73
2023-04-29T10:11:20.403Z,7.93
2023-04-29T10:13:51.132Z,8.10
2023-04-29T10:16:26.371Z,8.05
2023-04-29T10:18:56.494Z,7.10
2023-04-29T10:21:28.343Z,8.15
2023-04-29T10:23:57.764Z,7.97
2023-04-29T10:26:29.402Z,7.40
2023-04-29T10:28:57.825Z,6.60
2023-04-29T10:31:30.732Z,6.80
2023-04-29T10:33:59.092Z,6.93
2023-04-29T10:36:28.656Z,6.97
2023-04-29T10:38:58.488Z,6.40
2023-04-29T10:41:28.723Z,6.28
2023-04-29T10:43:56.527Z,6.57
2023-04-29T10:46:28.169Z,6.10
2023-04-29T10:49:02.993Z,5.88
2023-04-29T10:51:31.751Z,6.88
2023-04-29T10:54:04.313Z,6.85
2023-04-29T10:56:50.412Z,6.65
2023-04-29T10:59:22.131Z,7.00
2023-04-29T11:01:53.943Z,5.90
2023-04-29T11:04:22.565Z,6.72
2023-04-29T11:06:54.822Z,6.05
2023-04-29T11:09:25.605Z,6.03
2023-04-29T11:12:05.614Z,6.30
2023-04-29T11:14:43.448Z,5.78
2023-04-29T11:17:11.625Z,5.53
2023-04-29T11:19:45.070Z,5.28
2023-04-29T11:22:21.686Z,5.60
2023-04-29T11:24:59.310Z,5.00
2023-04-29T11:27:34.559Z,4.60
2023-04-29T11:30:05.370Z,4.55
2023-04-29T11:32:34.770Z,4.95
2023-04-29T11:35:15.957Z,4.65
2023-04-29T11:37:45.826Z,4.40
2023-04-29T11:40:15.659Z,4.72
2023-04-29T11:42:45.608Z,5.00
2023-04-29T11:45:15.199Z,4.72
2023-04-29T11:47:47.484Z,4.70
2023-04-29T11:50:19.244Z,3.97
2023-04-29T11:52:48.534Z,4.15
2023-04-29T11:55:18.467Z,4.10
2023-04-29T11:57:50.782Z,4.03
2023-04-29T12:00:19.983Z,3.78
2023-04-29T12:02:50.907Z,3.50
2023-04-29T12:05:20.464Z,3.80
2023-04-29T12:07:51.546Z,4.53
2023-04-29T12:10:22.301Z,4.07
2023-04-29T12:12:49.955Z,4.05
2023-04-29T12:15:18.493Z,4.10
2023-04-29T12:17:51.675Z,3.55
2023-04-29T12:20:19.780Z,3.15
2023-04-29T12:22:49.117Z,3.70
2023-04-29T12:25:19.029Z,4.05
2023-04-29T12:27:49.356Z,4.72
2023-04-29T12:32:47.533Z,4.15
2023-04-29T12:35:20.380Z,4.22
2023-04-29T12:37:51.913Z,4.78
2023-04-29T12:40:21.228Z,5.15
2023-04-29T12:42:50.549Z,4.45
2023-04-29T12:45:41.031Z,4.00
2023-04-29T12:48:29.811Z,4.35
2023-04-29T12:53:53.246Z,4.25
2023-04-29T12:56:22.041Z,4.05
2023-04-29T12:59:09.288Z,3.70
2023-04-29T13:01:37.510Z,4.20
2023-04-29T13:04:12.145Z,3.63
2023-04-29T13:06:41.831Z,4.05
2023-04-29T13:09:18.359Z,4.05
2023-04-29T13:11:51.250Z,3.20
2023-04-29T13:14:21.724Z,3.13
2023-04-29T13:16:49.945Z,3.15
2023-04-29T13:21:54.862Z,3.28
2023-04-29T13:24:22.458Z,2.67
2023-04-29T13:26:52.400Z,2.60
2023-04-29T13:31:52.756Z,2.60
2023-04-29T13:34:21.346Z,3.03
2023-04-29T13:36:49.722Z,3.05
2023-04-29T13:39:20.371Z,2.75
2023-04-29T13:41:50.706Z,3.47
2023-04-29T13:44:29.413Z,3.47
2023-04-29T13:47:05.615Z,3.47
2023-04-29T13:55:04.189Z,3.42
2023-04-29T13:58:36.289Z,3.00
2023-04-29T14:05:32.266Z,2.80
2023-04-29T14:08:00.608Z,3.55
2023-04-29T14:10:28.180Z,3.40
2023-04-29T14:12:56.101Z,2.88
2023-04-29T14:15:23.763Z,3.13
2023-04-29T14:17:53.513Z,3.38
2023-04-29T14:20:21.339Z,3.60
2023-04-29T14:22:52.333Z,2.90
2023-04-29T14:25:20.443Z,3.63
2023-04-29T14:27:51.622Z,3.40
2023-04-29T14:30:20.297Z,4.03
2023-04-29T14:32:54.254Z,4.35
2023-04-29T14:35:29.438Z,4.03
2023-04-29T14:37:58.091Z,4.45
2023-04-29T14:40:31.840Z,3.88
2023-04-29T14:42:59.961Z,3.95
2023-04-29T14:45:28.353Z,4.68
2023-04-29T14:47:56.472Z,5.00
2023-04-29T14:50:25.488Z,4.20
2023-04-29T14:52:58.416Z,4.60
2023-04-29T14:55:26.668Z,4.40
2023-04-29T14:57:54.448Z,4.18
2023-04-29T15:00:26.963Z,4.30
2023-04-29T15:02:57.248Z,5.03
2023-04-29T15:05:25.394Z,4.10
2023-04-29T15:07:54.428Z,4.60
2023-04-29T15:10:22.024Z,4.57
2023-04-29T15:12:51.384Z,3.83
2023-04-29T15:15:20.174Z,3.80
2023-04-29T15:17:53.861Z,3.90
2023-04-29T15:20:22.017Z,4.18
2023-04-29T15:22:49.894Z,3.83
2023-04-29T15:25:18.478Z,2.85
2023-04-29T15:27:47.259Z,3.40
2023-04-29T15:30:15.136Z,3.88
2023-04-29T15:32:42.587Z,3.30
2023-04-29T15:35:11.265Z,3.50
2023-04-29T15:37:38.951Z,3.78
2023-04-29T15:40:06.858Z,2.92
2023-04-29T15:42:35.475Z,3.33
2023-04-29T15:45:04.166Z,3.53
2023-04-29T15:47:32.133Z,3.95
2023-04-29T15:49:59.777Z,3.53
2023-04-29T15:52:28.562Z,3.95
2023-04-29T15:54:56.364Z,3.60
2023-04-29T15:57:26.058Z,3.05
2023-04-29T15:59:55.293Z,3.40
2023-04-29T16:02:27.225Z,4.43
2023-04-29T16:04:55.548Z,3.80
2023-04-29T16:07:23.126Z,4.50
2023-04-29T16:09:53.494Z,3.88
2023-04-29T16:12:21.453Z,3.13
2023-04-29T16:14:52.397Z,4.18
2023-04-29T16:17:20.222Z,3.80
2023-04-29T16:19:49.008Z,3.80
2023-04-29T16:22:18.722Z,2.58
2023-04-29T16:24:49.372Z,3.13
2023-04-29T16:27:21.326Z,2.38
2023-04-29T16:29:49.867Z,2.53
2023-04-29T16:32:19.334Z,2.42
2023-04-29T16:34:49.384Z,2.30
2023-04-29T16:37:18.612Z,2.67
2023-04-29T16:39:50.391Z,2.45
2023-04-29T16:42:19.857Z,3.60
2023-04-29T16:44:52.760Z,3.35
2023-04-29T16:47:21.174Z,3.78
2023-04-29T16:49:52.871Z,3.08
2023-04-29T16:52:21.146Z,3.92
2023-04-29T16:54:50.430Z,3.30
2023-04-29T16:57:21.151Z,3.40
2023-04-29T16:59:52.222Z,3.10
2023-04-29T17:02:20.628Z,3.67
2023-04-29T17:04:49.649Z,3.03
2023-04-29T17:07:32.240Z,3.65
2023-04-29T17:10:03.024Z,4.65
2023-04-29T17:12:34.088Z,5.10
2023-04-29T17:15:01.953Z,5.75
2023-04-29T17:17:30.633Z,5.43
2023-04-29T17:19:58.402Z,5.85
2023-04-29T17:22:27.746Z,5.72
2023-04-29T17:24:56.216Z,5.10
2023-04-29T17:27:27.310Z,4.55
2023-04-29T17:29:55.436Z,3.90
2023-04-29T17:32:29.183Z,3.47
2023-04-29T17:34:57.846Z,3.50
2023-04-29T17:37:25.952Z,4.45
2023-04-29T17:39:54.258Z,3.83
2023-04-29T17:42:22.257Z,3.20
2023-04-29T17:44:51.186Z,2.88
2023-04-29T17:47:19.908Z,2.55
2023-04-29T17:49:52.165Z,3.15
2023-04-29T17:52:21.538Z,2.65
2023-04-29T17:54:49.713Z,2.72
2023-04-29T17:57:18.325Z,2.60
2023-04-29T17:59:47.627Z,2.83
2023-04-29T18:02:18.640Z,3.25
2023-04-29T18:04:47.297Z,2.88
2023-04-29T18:07:15.153Z,2.97
2023-04-29T18:09:42.921Z,3.60
2023-04-29T18:12:10.348Z,3.30
2023-04-29T18:14:39.524Z,3.67
2023-04-29T18:17:07.215Z,3.15
2023-04-29T18:19:35.090Z,3.75
2023-04-29T18:22:02.898Z,3.08
2023-04-29T18:24:30.934Z,2.78
2023-04-29T18:26:58.487Z,2.65
2023-04-29T18:29:26.230Z,2.22
2023-04-29T18:31:55.224Z,2.50
2023-04-29T18:34:23.105Z,2.47
2023-04-29T18:36:51.617Z,2.30
2023-04-29T18:39:21.633Z,2.45
2023-04-29T18:41:49.788Z,2.25
2023-04-29T18:44:18.591Z,2.15
2023-04-29T18:46:46.109Z,2.38
2023-04-29T18:49:17.415Z,2.75
2023-04-29T18:51:49.997Z,2.10
2023-04-29T18:54:18.963Z,2.22
2023-04-29T18:56:52.553Z,2.20
2023-04-29T18:59:20.445Z,2.75
2023-04-29T19:01:50.098Z,2.30
2023-04-29T19:04:19.502Z,2.67
2023-04-29T19:06:48.309Z,2.58
2023-04-29T19:09:16.031Z,2.40
2023-04-29T19:11:45.231Z,2.30
2023-04-29T19:14:13.120Z,3.00
2023-04-29T19:16:41.251Z,2.65
2023-04-29T19:19:09.129Z,2.40
2023-04-29T19:21:37.624Z,2.25
2023-04-29T19:24:05.393Z,2.22
2023-04-29T19:26:35.570Z,2.00
2023-04-29T19:29:04.041Z,2.63
2023-04-29T19:31:32.201Z,2.70
2023-04-29T19:34:00.997Z,2.55
2023-04-29T19:36:31.360Z,2.75
2023-04-29T19:38:59.123Z,2.30
2023-04-29T19:41:31.455Z,2.20
2023-04-29T19:44:00.153Z,2.75
2023-04-29T19:46:28.223Z,2.20
2023-04-29T19:48:56.280Z,2.95
2023-04-29T19:51:23.892Z,2.58
2023-04-29T19:53:52.667Z,3.00
2023-04-29T19:56:20.431Z,3.25
2023-04-29T19:58:49.745Z,2.58
2023-04-29T20:01:19.043Z,2.97
2023-04-29T20:03:49.885Z,2.93
2023-04-29T20:08:46.013Z,2.95
2023-04-29T20:11:14.871Z,2.88
2023-04-29T20:13:42.760Z,3.08
2023-04-29T20:16:11.498Z,3.45
2023-04-29T20:18:40.939Z,3.40
2023-04-29T20:21:08.705Z,3.45
2023-04-29T20:23:36.781Z,3.30
2023-04-29T20:26:04.542Z,3.55
2023-04-29T20:28:32.491Z,3.20
2023-04-29T20:31:00.405Z,3.53
2023-04-29T20:33:28.505Z,3.95
2023-04-29T20:35:57.466Z,3.88
2023-04-29T20:38:27.180Z,4.15
2023-04-29T20:41:01.082Z,4.05
2023-04-29T20:43:29.345Z,3.78
2023-04-29T20:45:58.704Z,3.63
2023-04-29T20:48:26.555Z,3.58
2023-04-29T20:50:55.473Z,3.78
2023-04-29T20:53:23.482Z,4.07
2023-04-29T20:55:51.621Z,3.92
2023-04-29T20:58:22.403Z,4.30
2023-04-29T21:00:53.688Z,4.43
2023-04-29T21:03:22.692Z,4.10
2023-04-29T21:06:02.119Z,4.40
2023-04-29T21:08:30.033Z,3.70
2023-04-29T21:10:58.178Z,5.18
2023-04-29T21:13:26.764Z,4.50
2023-04-29T21:15:56.405Z,4.22
2023-04-29T21:18:25.629Z,4.22
2023-04-29T21:20:54.068Z,4.57
2023-04-29T21:23:23.352Z,4.35
2023-04-29T21:25:51.965Z,4.82
2023-04-29T21:28:22.981Z,5.03
2023-04-29T21:30:51.741Z,5.18
2023-04-29T21:33:20.844Z,4.57
2023-04-29T21:36:01.470Z,5.10
2023-04-29T21:38:29.247Z,5.43
2023-04-29T21:41:00.539Z,4.82
2023-04-29T21:43:29.184Z,5.25
2023-04-29T21:45:58.068Z,5.20
2023-04-29T21:48:26.325Z,5.43
2023-04-29T21:50:54.091Z,6.43
2023-04-29T21:53:24.814Z,6.15
2023-04-29T21:55:56.581Z,6.50
2023-04-29T21:58:27.924Z,6.55
2023-04-29T22:01:01.609Z,6.55
2023-04-29T22:03:30.198Z,6.85
2023-04-29T22:05:59.100Z,7.35
2023-04-29T22:08:28.182Z,6.97
2023-04-29T22:11:00.816Z,7.22
2023-04-29T22:13:32.002Z,7.10
2023-04-29T22:15:59.861Z,7.88
2023-04-29T22:18:27.556Z,8.10
2023-04-29T22:20:55.259Z,9.15
2023-04-29T22:23:24.267Z,8.18
2023-04-29T22:25:51.755Z,8.30
2023-04-29T22:28:19.951Z,8.40
2023-04-29T22:30:48.495Z,9.05
2023-04-29T22:33:17.039Z,8.55
2023-04-29T22:35:44.804Z,9.77
2023-04-29T22:38:12.836Z,8.93
2023-04-29T22:40:41.654Z,8.82
2023-04-29T22:43:09.246Z,9.00
2023-04-29T22:45:36.830Z,9.10
2023-04-29T22:48:04.520Z,9.10
2023-04-29T22:50:32.873Z,9.10
2023-04-29T22:53:01.008Z,9.40
2023-04-29T22:55:28.793Z,9.98
2023-04-29T22:57:56.514Z,9.73
2023-04-29T23:00:24.109Z,8.90
2023-04-29T23:02:51.813Z,9.65
2023-04-29T23:05:22.494Z,9.55
2023-04-29T23:07:50.034Z,9.82
2023-04-29T23:10:20.971Z,9.50
2023-04-29T23:12:50.120Z,9.15
2023-04-29T23:15:21.062Z,9.32
2023-04-29T23:17:52.842Z,8.95
2023-04-29T23:20:20.758Z,8.50
2023-04-29T23:22:53.836Z,9.02
2023-04-29T23:25:21.532Z,9.57
2023-04-29T23:27:49.786Z,9.48
2023-04-29T23:30:20.954Z,9.52
2023-04-29T23:32:50.073Z,9.80
2023-04-29T23:35:18.513Z,8.85
2023-04-29T23:37:47.425Z,9.20
2023-04-29T23:40:16.080Z,7.95
2023-04-29T23:42:44.859Z,9.27
2023-04-29T23:45:12.531Z,8.13
2023-04-29T23:47:40.078Z,8.60
2023-04-29T23:50:08.382Z,8.68
2023-04-29T23:52:35.846Z,9.02
2023-04-29T23:55:05.325Z,8.80
2023-04-29T23:57:36.013Z,8.52
